Time;durP1;ratioP1;P1;durP2;ratioP2;P2;SDS_P1;SDS_P2;PMS_P1;PMS_P2;Temp;Humidity;BMP_temperature;BMP_pressure;BME280_temperature;BME280_humidity;BME280_pressure;Samples;Min_cycle;Max_cycle;Signal;HPM_P1;HPM_P2
2023/11/25 00:01:36;;;;;;;;;;;;;;;;;;6307421;28;19913;-90
2023/11/25 00:04:36;;;;;;;;;;;;;;;;;;6309862;28;19935;-90
2023/11/25 00:07:36;;;;;;;;;;;;;;;;;;6299521;28;20364;-90
2023/11/25 00:10:36;;;;;;;;;;;;;;;;;;6336070;27;19936;-91
2023/11/25 00:13:36;;;;;;;;;;;;;;;;;;6306649;28;19982;-89
2023/11/25 00:16:37;;;;;;;;;;;;;;;;;;6305790;28;19920;-88
2023/11/25 00:19:37;;;;;;;;;;;;;;;;;;6304295;28;19928;-88
2023/11/25 00:22:37;;;;;;;;;;;;;;;;;;6308007;28;19920;-90
2023/11/25 00:25:37;;;;;;;;;;;;;;;;;;6310206;28;19943;-89
2023/11/25 00:28:37;;;;;;;;;;;;;;;;;;6307453;28;19912;-88
2023/11/25 00:31:37;;;;;;;;;;;;;;;;;;6299257;28;20301;-89
2023/11/25 00:34:37;;;;;;;;;;;;;;;;;;6303395;28;19944;-88
2023/11/25 00:37:41;;;;;;;;;;;;;;;;;;6301514;28;19970;-89
2023/11/25 00:40:41;;;;;;;;;;;;;;;;;;6302515;28;19927;-89
2023/11/25 00:43:41;;;;;;;;;;;;;;;;;;6302284;28;19913;-89
2023/11/25 00:46:42;;;;;;;;;;;;;;;;;;6304219;28;20011;-89
2023/11/25 00:49:44;;;;;;;;;;;;;;;;;;6303805;28;19916;-90
2023/11/25 00:52:44;;;;;;;;;;;;;;;;;;6304670;28;19920;-90
2023/11/25 00:55:46;;;;;;;;;;;;;;;;;;6303708;28;19921;-88
2023/11/25 00:58:47;;;;;;;;;;;;;;;;;;6303191;28;20403;-87
2023/11/25 01:01:47;;;;;;;;;;;;;;;;;;6302356;28;19912;-87
2023/11/25 01:04:47;;;;;;;;;;;;;;;;;;6301566;28;19920;-88
2023/11/25 01:07:47;;;;;;;;;;;;;;;;;;6331296;27;20399;-87
2023/11/25 01:10:48;;;;;;;;;;;;;;;;;;6305597;28;19928;-88
2023/11/25 01:13:48;;;;;;;;;;;;;;;;;;6316871;28;19959;-88
2023/11/25 01:16:48;;;;;;;;;;;;;;;;;;6301920;28;19912;-87
2023/11/25 01:19:48;;;;;;;;;;;;;;;;;;6304060;28;19920;-88
2023/11/25 01:22:49;;;;;;;;;;;;;;;;;;6333511;27;19920;-87
2023/11/25 01:25:49;;;;;;;;;;;;;;;;;;6307268;28;20276;-87
2023/11/25 01:28:49;;;;;;;;;;;;;;;;;;6300860;28;19924;-88
2023/11/25 01:31:50;;;;;;;;;;;;;;;;;;6298199;28;19956;-88
2023/11/25 01:34:50;;;;;;;;;;;;;;;;;;6304493;28;19913;-88
2023/11/25 01:37:50;;;;;;;;;;;;;;;;;;6309155;28;19920;-87
2023/11/25 01:40:52;;;;;;;;;;;;;;;;;;6301498;28;20015;-88
2023/11/25 01:43:54;;;;;;;;;;;;;;;;;;6307232;28;19917;-88
2023/11/25 01:46:54;;;;;;;;;;;;;;;;;;6303071;28;20335;-89
2023/11/25 01:49:55;;;;;;;;;;;;;;;;;;6301336;28;19920;-89
2023/11/25 01:52:55;;;;;;;;;;;;;;;;;;6317779;28;19912;-88
2023/11/25 01:55:55;;;;;;;;;;;;;;;;;;6296915;28;19913;-88
2023/11/25 01:58:56;;;;;;;;;;;;;;;;;;6301150;28;19927;-88
2023/11/25 02:01:57;;;;;;;;;;;;;;;;;;6297079;28;19913;-88
2023/11/25 02:04:57;;;;;;;;;;;;;;;;;;6295687;28;19942;-88
2023/11/25 02:07:57;;;;;;;;;;;;;;;;;;6304432;28;19954;-89
2023/11/25 02:10:57;;;;;;;;;;;;;;;;;;6298988;28;19927;-89
2023/11/25 02:13:58;;;;;;;;;;;;;;;;;;6297603;28;19909;-88
2023/11/25 02:16:59;;;;;;;;;;;;;;;;;;6302267;28;19958;-88
2023/11/25 02:20:02;;;;;;;;;;;;;;;;;;6303281;28;20283;-88
2023/11/25 02:23:02;;;;;;;;;;;;;;;;;;6306763;28;19923;-88
2023/11/25 02:26:03;;;;;;;;;;;;;;;;;;6334633;27;19925;-88
2023/11/25 02:29:03;;;;;;;;;;;;;;;;;;6316437;28;19912;-89
2023/11/25 02:32:03;;;;;;;;;;;;;;;;;;6303255;28;20273;-89
2023/11/25 02:35:05;;;;;;;;;;;;;;;;;;6304412;28;20337;-89
2023/11/25 02:38:05;;;;;;;;;;;;;;;;;;6334115;27;20007;-88
2023/11/25 02:41:05;;;;;;;;;;;;;;;;;;6307922;28;19920;-89
2023/11/25 02:44:07;;;;;;;;;;;;;;;;;;6306564;28;19923;-89
2023/11/25 02:47:07;;;;;;;;;;;;;;;;;;6309464;28;20437;-89
2023/11/25 02:50:08;;;;;;;;;;;;;;;;;;6305286;28;19921;-88
2023/11/25 02:53:09;;;;;;;;;;;;;;;;;;6301355;28;19912;-89
2023/11/25 02:56:09;;;;;;;;;;;;;;;;;;6317961;28;20063;-89
2023/11/25 02:59:09;;;;;;;;;;;;;;;;;;6302781;28;19916;-88
2023/11/25 03:02:10;;;;;;;;;;;;;;;;;;6342917;27;19966;-88
2023/11/25 03:05:10;;;;;;;;;;;;;;;;;;6302313;28;20325;-88
2023/11/25 03:08:12;;;;;;;;;;;;;;;;;;6303947;28;19927;-88
2023/11/25 03:11:15;;;;;;;;;;;;;;;;;;6310800;28;19912;-91
2023/11/25 03:14:15;;;;;;;;;;;;;;;;;;6313913;28;19920;-90
2023/11/25 03:17:15;;;;;;;;;;;;;;;;;;6308372;28;19912;-91
2023/11/25 03:20:16;;;;;;;;;;;;;;;;;;6302079;28;19916;-91
2023/11/25 03:23:17;;;;;;;;;;;;;;;;;;6340080;27;19916;-91
2023/11/25 03:26:17;;;;;;;;;;;;;;;;;;6311481;28;19982;-91
2023/11/25 03:29:18;;;;;;;;;;;;;;;;;;6309739;28;19935;-90
2023/11/25 03:32:19;;;;;;;;;;;;;;;;;;6306123;28;20007;-90
2023/11/25 03:35:21;;;;;;;;;;;;;;;;;;6308740;28;20371;-89
2023/11/25 03:38:22;;;;;;;;;;;;;;;;;;6305990;28;19916;-90
2023/11/25 03:41:23;;;;;;;;;;;;;;;;;;6310714;28;19923;-90
2023/11/25 03:44:23;;;;;;;;;;;;;;;;;;6334216;27;20002;-91
2023/11/25 03:47:23;;;;;;;;;;;;;;;;;;6307550;28;19912;-91
2023/11/25 03:50:23;;;;;;;;;;;;;;;;;;6308336;28;19912;-91
2023/11/25 03:53:23;;;;;;;;;;;;;;;;;;6306140;28;19927;-91
2023/11/25 03:56:24;;;;;;;;;;;;;;;;;;6306408;28;19916;-91
2023/11/25 03:59:24;;;;;;;;;;;;;;;;;;6306920;28;19920;-91
2023/11/25 04:02:25;;;;;;;;;;;;;;;;;;6312041;28;19962;-90
2023/11/25 04:05:25;;;;;;;;;;;;;;;;;;6306629;28;19936;-92
2023/11/25 04:08:25;;;;;;;;;;;;;;;;;;6306223;28;20331;-90
2023/11/25 04:11:25;;;;;;;;;;;;;;;;;;6311135;28;19981;-91
2023/11/25 04:14:25;;;;;;;;;;;;;;;;;;6334207;27;20442;-91
2023/11/25 04:17:25;;;;;;;;;;;;;;;;;;6338928;27;20012;-91
2023/11/25 04:20:28;;;;;;;;;;;;;;;;;;6308582;28;19920;-89
2023/11/25 04:23:30;;;;;;;;;;;;;;;;;;6310114;28;19963;-88
2023/11/25 04:26:31;;;;;;;;;;;;;;;;;;6299745;28;20006;-88
2023/11/25 04:29:31;;;;;;;;;;;;;;;;;;6312432;28;19923;-88
2023/11/25 04:32:31;;;;;;;;;;;;;;;;;;6302919;28;19913;-89
2023/11/25 04:35:31;;;;;;;;;;;;;;;;;;6304197;28;20015;-89
2023/11/25 04:38:31;;;;;;;;;;;;;;;;;;6335614;27;19948;-89
2023/11/25 04:41:31;;;;;;;;;;;;;;;;;;6333411;27;20277;-89
2023/11/25 04:44:32;;;;;;;;;;;;;;;;;;6305774;28;20284;-88
2023/11/25 04:47:32;;;;;;;;;;;;;;;;;;6306615;28;19912;-89
2023/11/25 04:50:34;;;;;;;;;;;;;;;;;;6304069;28;20001;-90
2023/11/25 04:53:34;;;;;;;;;;;;;;;;;;6335104;27;19912;-90
2023/11/25 04:56:35;;;;;;;;;;;;;;;;;;6317700;27;19919;-90
2023/11/25 04:59:35;;;;;;;;;;;;;;;;;;6305690;28;19916;-89
2023/11/25 05:02:36;;;;;;;;;;;;;;;;;;6300019;28;19924;-92
2023/11/25 05:05:37;;;;;;;;;;;;;;;;;;6300421;28;20342;-89
2023/11/25 05:08:37;;;;;;;;;;;;;;;;;;6312384;28;19919;-89
2023/11/25 05:11:37;;;;;;;;;;;;;;;;;;6307592;28;19924;-88
2023/11/25 05:14:37;;;;;;;;;;;;;;;;;;6306914;28;19921;-88
2023/11/25 05:17:38;;;;;;;;;;;;;;;;;;6304641;28;19983;-89
2023/11/25 05:20:38;;;;;;;;;;;;;;;;;;6306315;28;19919;-89
2023/11/25 05:23:38;;;;;;;;;;;;;;;;;;6303946;28;19923;-89
2023/11/25 05:26:38;;;;;;;;;;;;;;;;;;6302940;28;19921;-88
2023/11/25 05:29:38;;;;;;;;;;;;;;;;;;6307092;28;19919;-90
2023/11/25 05:32:38;;;;;;;;;;;;;;;;;;6306301;28;19921;-90
2023/11/25 05:35:38;;;;;;;;;;;;;;;;;;6304417;28;20007;-92
2023/11/25 05:38:39;;;;;;;;;;;;;;;;;;6304017;28;20017;-90
2023/11/25 05:41:39;;;;;;;;;;;;;;;;;;6305316;28;20007;-90
2023/11/25 05:44:39;;;;;;;;;;;;;;;;;;6306567;28;20002;-91
2023/11/25 05:47:40;;;;;;;;;;;;;;;;;;6301685;28;19917;-91
2023/11/25 05:50:40;;;;;;;;;;;;;;;;;;6332067;27;19919;-90
2023/11/25 05:53:40;;;;;;;;;;;;;;;;;;6301325;28;19913;-90
2023/11/25 05:56:40;;;;;;;;;;;;;;;;;;6341878;27;19920;-90
2023/11/25 05:59:41;;;;;;;;;;;;;;;;;;6308031;28;19912;-92
2023/11/25 06:02:41;;;;;;;;;;;;;;;;;;6335481;27;19919;-90
2023/11/25 06:05:41;;;;;;;;;;;;;;;;;;6299078;28;20381;-92
2023/11/25 06:08:42;;;;;;;;;;;;;;;;;;6303514;28;19911;-90
2023/11/25 06:11:42;;;;;;;;;;;;;;;;;;6303361;28;19912;-90
2023/11/25 06:14:42;;;;;;;;;;;;;;;;;;6302300;28;19920;-93
2023/11/25 06:17:45;;;;;;;;;;;;;;;;;;6305783;28;19919;-91
2023/11/25 06:20:45;;;;;;;;;;;;;;;;;;6297161;28;19913;-89
2023/11/25 06:23:45;;;;;;;;;;;;;;;;;;6306765;28;20464;-90
2023/11/25 06:26:49;;;;;;;;;;;;;;;;;;6302458;28;20436;-89
2023/11/25 06:29:50;;;;;;;;;;;;;;;;;;6302357;28;19912;-89
2023/11/25 06:32:50;;;;;;;;;;;;;;;;;;6301595;28;19935;-90
2023/11/25 06:35:50;;;;;;;;;;;;;;;;;;6302874;28;19912;-90
2023/11/25 06:38:50;;;;;;;;;;;;;;;;;;6307210;28;19923;-89
2023/11/25 06:41:51;;;;;;;;;;;;;;;;;;6305832;28;19912;-90
2023/11/25 06:44:51;;;;;;;;;;;;;;;;;;6304455;28;19925;-90
2023/11/25 06:47:54;;;;;;;;;;;;;;;;;;6334085;27;19921;-89
2023/11/25 06:50:54;;;;;;;;;;;;;;;;;;6298076;28;19958;-89
2023/11/25 06:53:54;;;;;;;;;;;;;;;;;;6307518;28;19916;-90
2023/11/25 06:56:54;;;;;;;;;;;;;;;;;;6310394;28;19939;-90
2023/11/25 06:59:56;;;;;;;;;;;;;;;;;;6300322;28;19916;-89
2023/11/25 07:02:56;;;;;;;;;;;;;;;;;;6306455;28;19916;-90
2023/11/25 07:05:57;;;;;;;;;;;;;;;;;;6304217;28;19956;-89
2023/11/25 07:09:00;;;;;;;;;;;;;;;;;;6333223;27;20009;-89
2023/11/25 07:12:00;;;;;;;;;;;;;;;;;;6304918;28;19912;-89
2023/11/25 07:15:00;;;;;;;;;;;;;;;;;;6305877;28;19923;-90
2023/11/25 07:18:00;;;;;;;;;;;;;;;;;;6301003;28;20015;-91
2023/11/25 07:21:00;;;;;;;;;;;;;;;;;;6309860;28;20006;-89
2023/11/25 07:24:00;;;;;;;;;;;;;;;;;;6297238;28;20019;-90
2023/11/25 07:27:04;;;;;;;;;;;;;;;;;;6306932;28;19928;-90
2023/11/25 07:30:05;;;;;;;;;;;;;;;;;;6304240;28;20273;-90
2023/11/25 07:33:05;;;;;;;;;;;;;;;;;;6314759;28;19916;-91
2023/11/25 07:36:06;;;;;;;;;;;;;;;;;;6304156;28;20289;-89
2023/11/25 07:39:06;;;;;;;;;;;;;;;;;;6340073;27;19938;-90
2023/11/25 07:42:08;;;;;;;;;;;;;;;;;;6305726;28;20296;-90
2023/11/25 07:45:09;;;;;;;;;;;;;;;;;;6308272;28;20373;-89
2023/11/25 07:48:09;;;;;;;;;;;;;;;;;;6308516;28;20392;-89
2023/11/25 07:51:10;;;;;;;;;;;;;;;;;;6303797;28;19916;-93
2023/11/25 07:54:11;;;;;;;;;;;;;;;;;;6336936;27;19988;-94
2023/11/25 07:57:11;;;;;;;;;;;;;;;;;;6304713;28;19916;-94
2023/11/25 08:00:19;;;;;;;;;;;;;;;;;;6341715;27;19920;-94
2023/11/25 08:03:19;;;;;;;;;;;;;;;;;;6307842;28;19921;-93
2023/11/25 08:06:21;;;;;;;;;;;;;;;;;;6338557;27;19920;-93
2023/11/25 08:09:21;;;;;;;;;;;;;;;;;;6341831;27;19912;-93
2023/11/25 08:12:21;;;;;;;;;;;;;;;;;;6305506;28;19966;-92
2023/11/25 08:15:22;;;;;;;;;;;;;;;;;;6321673;28;19928;-93
2023/11/25 08:18:23;;;;;;;;;;;;;;;;;;6306802;28;19920;-93
2023/11/25 08:21:23;;;;;;;;;;;;;;;;;;6334665;27;19948;-93
2023/11/25 08:24:23;;;;;;;;;;;;;;;;;;6342975;27;20397;-94
2023/11/25 08:27:23;;;;;;;;;;;;;;;;;;6309242;28;20373;-94
2023/11/25 08:30:24;;;;;;;;;;;;;;;;;;6308919;28;20369;-94
2023/11/25 08:33:25;;;;;;;;;;;;;;;;;;6304424;28;19913;-93
2023/11/25 08:36:25;;;;;;;;;;;;;;;;;;6340188;27;19935;-94
2023/11/25 08:39:25;;;;;;;;;;;;;;;;;;6306071;28;20384;-93
2023/11/25 08:42:26;;;;;;;;;;;;;;;;;;6307833;28;19942;-93
2023/11/25 08:45:26;;;;;;;;;;;;;;;;;;6305474;28;19929;-93
2023/11/25 08:48:26;;;;;;;;;;;;;;;;;;6342193;27;19912;-94
2023/11/25 08:51:27;;;;;;;;;;;;;;;;;;6338149;27;19912;-93
2023/11/25 08:54:29;;;;;;;;;;;;;;;;;;6306187;28;20289;-93
2023/11/25 08:57:31;;;;;;;;;;;;;;;;;;6340335;27;20014;-92
2023/11/25 09:00:31;;;;;;;;;;;;;;;;;;6305102;28;19917;-91
2023/11/25 09:03:33;;;;;;;;;;;;;;;;;;6304080;28;19923;-90
2023/11/25 09:06:37;;;;;;;;;;;;;;;;;;6307766;28;19929;-90
2023/11/25 09:09:37;;;;;;;;;;;;;;;;;;6312968;28;19963;-90
2023/11/25 09:12:37;;;;;;;;;;;;;;;;;;6307754;28;20296;-90
2023/11/25 09:15:37;;;;;;;;;;;;;;;;;;6306789;28;19913;-90
2023/11/25 09:18:38;;;;;;;;;;;;;;;;;;6335243;27;19927;-91
2023/11/25 09:21:38;;;;;;;;;;;;;;;;;;6301687;28;19912;-90
2023/11/25 09:24:40;;;;;;;;;;;;;;;;;;6326267;28;19920;-90
2023/11/25 09:27:40;;;;;;;;;;;;;;;;;;6307289;28;19927;-91
2023/11/25 09:30:41;;;;;;;;;;;;;;;;;;6309158;28;19912;-91
2023/11/25 09:33:41;;;;;;;;;;;;;;;;;;6308553;28;19955;-91
2023/11/25 09:36:41;;;;;;;;;;;;;;;;;;6302093;28;19926;-91
2023/11/25 09:39:41;;;;;;;;;;;;;;;;;;6305022;28;19968;-90
2023/11/25 09:42:42;;;;;;;;;;;;;;;;;;6308034;28;19939;-89
2023/11/25 09:45:42;;;;;;;;;;;;;;;;;;6304620;28;19920;-91
2023/11/25 09:48:43;;;;;;;;;;;;;;;;;;6301553;28;19920;-92
2023/11/25 09:51:43;;;;;;;;;;;;;;;;;;6303211;28;19921;-90
2023/11/25 09:54:44;;;;;;;;;;;;;;;;;;6300894;28;19923;-89
2023/11/25 09:57:44;;;;;;;;;;;;;;;;;;6300523;28;19912;-90
2023/11/25 10:00:44;;;;;;;;;;;;;;;;;;6305544;28;19919;-86
2023/11/25 10:03:45;;;;;;;;;;;;;;;;;;6336825;27;20010;-88
2023/11/25 10:06:45;;;;;;;;;;;;;;;;;;6298247;28;19916;-86
2023/11/25 10:09:45;;;;;;;;;;;;;;;;;;6305681;28;19956;-88
2023/11/25 10:12:45;;;;;;;;;;;;;;;;;;6306111;28;19959;-82
2023/11/25 10:15:46;;;;;;;;;;;;;;;;;;6301299;28;19956;-87
2023/11/25 10:18:47;;;;;;;;;;;;;;;;;;6301874;28;19916;-86
2023/11/25 10:21:47;;;;;;;;;;;;;;;;;;6308409;28;19908;-87
2023/11/25 10:24:49;;;;;;;;;;;;;;;;;;6297208;28;19935;-86
2023/11/25 10:27:51;;;;;;;;;;;;;;;;;;6299745;28;19925;-85
2023/11/25 10:30:51;;;;;;;;;;;;;;;;;;6299314;28;19928;-88
2023/11/25 10:33:51;;;;;;;;;;;;;;;;;;6301028;28;19924;-86
2023/11/25 10:36:51;;;;;;;;;;;;;;;;;;6302541;28;19920;-85
2023/11/25 10:39:51;;;;;;;;;;;;;;;;;;6299038;28;19912;-90
2023/11/25 10:42:51;;;;;;;;;;;;;;;;;;6302262;28;19965;-86
2023/11/25 10:45:52;;;;;;;;;;;;;;;;;;6301468;28;19967;-87
2023/11/25 10:48:52;;;;;;;;;;;;;;;;;;6336590;27;19955;-88
2023/11/25 10:51:54;;;;;;;;;;;;;;;;;;6295014;28;19959;-86
2023/11/25 10:54:55;;;;;;;;;;;;;;;;;;6308474;28;19913;-86
2023/11/25 10:57:56;;;;;;;;;;;;;;;;;;6336152;27;20400;-86
2023/11/25 11:00:57;;;;;;;;;;;;;;;;;;6304467;28;20292;-88
2023/11/25 11:03:58;;;;;;;;;;;;;;;;;;6300595;28;19912;-87
2023/11/25 11:06:59;;;;;;;;;;;;;;;;;;6303437;28;19961;-86
2023/11/25 11:10:00;;;;;;;;;;;;;;;;;;6302211;28;19916;-91
2023/11/25 11:13:01;;;;;;;;;;;;;;;;;;6309267;28;19912;-89
2023/11/25 11:16:01;;;;;;;;;;;;;;;;;;6306280;28;19919;-85
2023/11/25 11:19:01;;;;;;;;;;;;;;;;;;6308783;28;20365;-85
2023/11/25 11:22:01;;;;;;;;;;;;;;;;;;6311060;28;19913;-84
2023/11/25 11:25:02;;;;;;;;;;;;;;;;;;6315149;28;19924;-85
2023/11/25 11:28:02;;;;;;;;;;;;;;;;;;6310648;28;20288;-84
2023/11/25 11:31:02;;;;;;;;;;;;;;;;;;6304897;28;19924;-85
2023/11/25 11:34:03;;;;;;;;;;;;;;;;;;6298872;28;19917;-86
2023/11/25 11:37:06;;;;;;;;;;;;;;;;;;6306038;28;19913;-85
2023/11/25 11:40:06;;;;;;;;;;;;;;;;;;6307682;28;19920;-83
2023/11/25 11:43:08;;;;;;;;;;;;;;;;;;6303311;28;19928;-84
2023/11/25 11:46:08;;;;;;;;;;;;;;;;;;6307796;28;19927;-84
2023/11/25 11:49:09;;;;;;;;;;;;;;;;;;6339973;27;19916;-83
2023/11/25 11:52:09;;;;;;;;;;;;;;;;;;6308240;28;19916;-83
2023/11/25 11:55:09;;;;;;;;;;;;;;;;;;6305186;28;19924;-84
2023/11/25 11:58:10;;;;;;;;;;;;;;;;;;6304369;28;19920;-84
2023/11/25 12:01:10;;;;;;;;;;;;;;;;;;6303687;28;20006;-84
2023/11/25 12:04:10;;;;;;;;;;;;;;;;;;6305399;28;19920;-85
2023/11/25 12:07:10;;;;;;;;;;;;;;;;;;6301997;28;20016;-83
2023/11/25 12:10:11;;;;;;;;;;;;;;;;;;6329965;27;19952;-85
2023/11/25 12:13:12;;;;;;;;;;;;;;;;;;6305215;28;19979;-84
2023/11/25 12:16:12;;;;;;;;;;;;;;;;;;6302982;28;19920;-84
2023/11/25 12:19:12;;;;;;;;;;;;;;;;;;6305924;28;20018;-86
2023/11/25 12:22:12;;;;;;;;;;;;;;;;;;6308618;28;20003;-84
2023/11/25 12:25:19;;;;;;;;;;;;;;;;;;6334367;27;19920;-84
2023/11/25 12:28:19;;;;;;;;;;;;;;;;;;6333145;27;19916;-85
2023/11/25 12:31:19;;;;;;;;;;;;;;;;;;6335525;27;20285;-84
2023/11/25 12:34:20;;;;;;;;;;;;;;;;;;6302728;28;19920;-84
2023/11/25 12:37:20;;;;;;;;;;;;;;;;;;6304605;28;19913;-83
2023/11/25 12:40:24;;;;;;;;;;;;;;;;;;6304745;28;19920;-83
2023/11/25 12:43:24;;;;;;;;;;;;;;;;;;6300631;28;19912;-84
2023/11/25 12:46:24;;;;;;;;;;;;;;;;;;6306507;28;19927;-83
2023/11/25 12:49:24;;;;;;;;;;;;;;;;;;6301279;28;19913;-83
2023/11/25 12:52:28;;;;;;;;;;;;;;;;;;6306423;28;19958;-83
2023/11/25 12:55:28;;;;;;;;;;;;;;;;;;6302081;28;19920;-84
2023/11/25 12:58:29;;;;;;;;;;;;;;;;;;6302191;28;19919;-84
2023/11/25 13:01:29;;;;;;;;;;;;;;;;;;6300216;28;19998;-84
2023/11/25 13:04:29;;;;;;;;;;;;;;;;;;6306289;28;20448;-84
2023/11/25 13:07:30;;;;;;;;;;;;;;;;;;6300789;28;19921;-84
2023/11/25 13:10:30;;;;;;;;;;;;;;;;;;6299241;28;19998;-84
2023/11/25 13:13:30;;;;;;;;;;;;;;;;;;6299826;28;19919;-84
2023/11/25 13:16:30;;;;;;;;;;;;;;;;;;6304231;28;19913;-84
2023/11/25 13:19:32;;;;;;;;;;;;;;;;;;6297245;28;20338;-84
2023/11/25 13:22:32;;;;;;;;;;;;;;;;;;6297773;28;19923;-84
2023/11/25 13:25:32;;;;;;;;;;;;;;;;;;6304526;28;20340;-84
2023/11/25 13:28:32;;;;;;;;;;;;;;;;;;6299755;28;19940;-84
2023/11/25 13:31:32;;;;;;;;;;;;;;;;;;6302668;28;19913;-84
2023/11/25 13:34:32;;;;;;;;;;;;;;;;;;6298432;28;19916;-85
2023/11/25 13:37:35;;;;;;;;;;;;;;;;;;6297928;28;19912;-85
2023/11/25 13:40:37;;;;;;;;;;;;;;;;;;6335957;27;19912;-85
2023/11/25 13:43:37;;;;;;;;;;;;;;;;;;6302113;28;20396;-85
2023/11/25 13:46:38;;;;;;;;;;;;;;;;;;6299782;28;20023;-84
2023/11/25 13:49:38;;;;;;;;;;;;;;;;;;6298837;28;20392;-84
2023/11/25 13:52:38;;;;;;;;;;;;;;;;;;6288893;28;19913;-86
2023/11/25 13:55:43;;;;;;;;;;;;;;;;;;6298486;28;19912;-85
2023/11/25 13:58:43;;;;;;;;;;;;;;;;;;6302115;28;19916;-85
2023/11/25 14:01:43;;;;;;;;;;;;;;;;;;6301175;28;20377;-85
2023/11/25 14:04:43;;;;;;;;;;;;;;;;;;6338190;27;19912;-84
2023/11/25 14:07:44;;;;;;;;;;;;;;;;;;6297797;28;19928;-84
2023/11/25 14:10:44;;;;;;;;;;;;;;;;;;6302085;28;19912;-84
2023/11/25 14:13:46;;;;;;;;;;;;;;;;;;6300819;28;19919;-84
2023/11/25 14:16:47;;;;;;;;;;;;;;;;;;6302308;28;19951;-84
2023/11/25 14:19:48;;;;;;;;;;;;;;;;;;6298697;28;19917;-84
2023/11/25 14:22:48;;;;;;;;;;;;;;;;;;6301978;28;19919;-84
2023/11/25 14:25:49;;;;;;;;;;;;;;;;;;6300523;28;20285;-84
2023/11/25 14:28:49;;;;;;;;;;;;;;;;;;6299715;28;19920;-83
2023/11/25 14:31:49;;;;;;;;;;;;;;;;;;6296793;28;20361;-83
2023/11/25 14:34:50;;;;;;;;;;;;;;;;;;6329110;27;20015;-83
2023/11/25 14:37:51;;;;;;;;;;;;;;;;;;6301695;28;19982;-79
2023/11/25 14:40:51;;;;;;;;;;;;;;;;;;6299592;28;19925;-80
2023/11/25 14:43:51;;;;;;;;;;;;;;;;;;6300494;28;20127;-79
2023/11/25 14:46:51;;;;;;;;;;;;;;;;;;6299818;28;19931;-79
2023/11/25 14:49:51;;;;;;;;;;;;;;;;;;6297461;28;19999;-80
2023/11/25 14:52:52;;;;;;;;;;;;;;;;;;6304721;28;19970;-82
2023/11/25 14:55:52;;;;;;;;;;;;;;;;;;6309646;28;19915;-81
2023/11/25 14:58:52;;;;;;;;;;;;;;;;;;6297157;28;19912;-81
2023/11/25 15:01:52;;;;;;;;;;;;;;;;;;6305798;28;19912;-82
2023/11/25 15:04:52;;;;;;;;;;;;;;;;;;6299990;28;19958;-82
2023/11/25 15:07:52;;;;;;;;;;;;;;;;;;6298761;28;19973;-81
2023/11/25 15:10:53;;;;;;;;;;;;;;;;;;6300599;28;20326;-82
2023/11/25 15:13:53;;;;;;;;;;;;;;;;;;6300800;28;19927;-81
2023/11/25 15:16:54;;;;;;;;;;;;;;;;;;6304907;28;19912;-82
2023/11/25 15:19:54;;;;;;;;;;;;;;;;;;6296122;28;19958;-81
2023/11/25 15:22:54;;;;;;;;;;;;;;;;;;6298577;28;20428;-82
2023/11/25 15:25:54;;;;;;;;;;;;;;;;;;6302498;28;20388;-81
2023/11/25 15:28:54;;;;;;;;;;;;;;;;;;6297009;28;20454;-81
2023/11/25 15:31:54;;;;;;;;;;;;;;;;;;6299897;28;20368;-81
2023/11/25 15:34:56;;;;;;;;;;;;;;;;;;6296698;28;20269;-80
2023/11/25 15:37:56;;;;;;;;;;;;;;;;;;6301470;28;19916;-82
2023/11/25 15:40:56;;;;;;;;;;;;;;;;;;6301779;28;19920;-82
2023/11/25 15:43:56;;;;;;;;;;;;;;;;;;6297524;28;19999;-82
2023/11/25 15:46:56;;;;;;;;;;;;;;;;;;6301035;28;20042;-83
2023/11/25 15:49:56;;;;;;;;;;;;;;;;;;6300158;28;20053;-83
2023/11/25 15:52:56;;;;;;;;;;;;;;;;;;6306183;28;20561;-83
2023/11/25 15:55:57;;;;;;;;;;;;;;;;;;6306871;28;19916;-83
2023/11/25 15:58:59;;;;;;;;;;;;;;;;;;6305000;28;19921;-83
2023/11/25 16:01:59;;;;;;;;;;;;;;;;;;6303326;28;19912;-83
2023/11/25 16:04:59;;;;;;;;;;;;;;;;;;6302220;28;19912;-83
2023/11/25 16:07:59;;;;;;;;;;;;;;;;;;6307485;28;20395;-82
2023/11/25 16:11:01;;;;;;;;;;;;;;;;;;6301658;28;19920;-82
2023/11/25 16:14:01;;;;;;;;;;;;;;;;;;6301312;28;19997;-82
2023/11/25 16:17:02;;;;;;;;;;;;;;;;;;6302935;28;19920;-81
2023/11/25 16:20:02;;;;;;;;;;;;;;;;;;6332838;27;19916;-82
2023/11/25 16:23:03;;;;;;;;;;;;;;;;;;6306698;28;19919;-82
2023/11/25 16:26:03;;;;;;;;;;;;;;;;;;6302643;28;19974;-82
2023/11/25 16:29:03;;;;;;;;;;;;;;;;;;6299155;28;19917;-82
2023/11/25 16:32:03;;;;;;;;;;;;;;;;;;6309049;28;19920;-82
2023/11/25 16:35:03;;;;;;;;;;;;;;;;;;6298130;28;19975;-82
2023/11/25 16:38:03;;;;;;;;;;;;;;;;;;6311110;28;19913;-82
2023/11/25 16:41:06;;;;;;;;;;;;;;;;;;6307494;28;20001;-82
2023/11/25 16:44:06;;;;;;;;;;;;;;;;;;6302101;28;19920;-82
2023/11/25 16:47:07;;;;;;;;;;;;;;;;;;6302115;28;19931;-82
2023/11/25 16:50:07;;;;;;;;;;;;;;;;;;6305182;28;19920;-83
2023/11/25 16:53:07;;;;;;;;;;;;;;;;;;6300716;28;19912;-82
2023/11/25 16:56:08;;;;;;;;;;;;;;;;;;6303437;28;19943;-80
2023/11/25 16:59:09;;;;;;;;;;;;;;;;;;6304470;28;19994;-86
2023/11/25 17:02:09;;;;;;;;;;;;;;;;;;6309620;28;20389;-82
2023/11/25 17:05:09;;;;;;;;;;;;;;;;;;6307554;28;19921;-85
2023/11/25 17:08:10;;;;;;;;;;;;;;;;;;6308710;28;19920;-83
2023/11/25 17:11:10;;;;;;;;;;;;;;;;;;6302520;28;19920;-83
2023/11/25 17:14:11;;;;;;;;;;;;;;;;;;6299913;28;19945;-91
2023/11/25 17:17:12;;;;;;;;;;;;;;;;;;6310616;28;19920;-83
2023/11/25 17:20:12;;;;;;;;;;;;;;;;;;6299226;28;19916;-85
2023/11/25 17:23:12;;;;;;;;;;;;;;;;;;6300972;28;20284;-81
2023/11/25 17:26:12;;;;;;;;;;;;;;;;;;6298654;28;19924;-82
2023/11/25 17:29:13;;;;;;;;;;;;;;;;;;6301068;28;20269;-82
2023/11/25 17:32:13;;;;;;;;;;;;;;;;;;6301719;28;19919;-82
2023/11/25 17:35:14;;;;;;;;;;;;;;;;;;6296607;28;19913;-81
2023/11/25 17:38:14;;;;;;;;;;;;;;;;;;6298173;28;20007;-81
2023/11/25 17:41:16;;;;;;;;;;;;;;;;;;6296941;28;19965;-81
2023/11/25 17:44:16;;;;;;;;;;;;;;;;;;6300042;28;19923;-81
2023/11/25 17:47:17;;;;;;;;;;;;;;;;;;6302282;28;19928;-81
2023/11/25 17:50:17;;;;;;;;;;;;;;;;;;6303517;28;19913;-80
2023/11/25 17:53:17;;;;;;;;;;;;;;;;;;6299861;28;20358;-80
2023/11/25 17:56:17;;;;;;;;;;;;;;;;;;6297535;28;20003;-81
2023/11/25 17:59:17;;;;;;;;;;;;;;;;;;6299951;28;20428;-80
2023/11/25 18:02:19;;;;;;;;;;;;;;;;;;6302282;28;19921;-81
2023/11/25 18:05:19;;;;;;;;;;;;;;;;;;6297822;28;19926;-81
2023/11/25 18:08:20;;;;;;;;;;;;;;;;;;6300599;28;19913;-81
2023/11/25 18:11:20;;;;;;;;;;;;;;;;;;6302151;28;19912;-81
2023/11/25 18:14:21;;;;;;;;;;;;;;;;;;6300322;28;19920;-80
2023/11/25 18:17:21;;;;;;;;;;;;;;;;;;6299105;28;20354;-78
2023/11/25 18:20:22;;;;;;;;;;;;;;;;;;6296149;28;19959;-79
2023/11/25 18:23:22;;;;;;;;;;;;;;;;;;6297167;28;19912;-79
2023/11/25 18:26:22;;;;;;;;;;;;;;;;;;6333512;27;20014;-79
2023/11/25 18:29:22;;;;;;;;;;;;;;;;;;6300292;28;20300;-79
2023/11/25 18:32:23;;;;;;;;;;;;;;;;;;6303360;28;20273;-79
2023/11/25 18:35:24;;;;;;;;;;;;;;;;;;6300465;28;20422;-79
2023/11/25 18:38:24;;;;;;;;;;;;;;;;;;6300101;28;19920;-79
2023/11/25 18:41:24;;;;;;;;;;;;;;;;;;6300241;28;19920;-79
2023/11/25 18:44:24;;;;;;;;;;;;;;;;;;6303824;28;19912;-80
2023/11/25 18:47:25;;;;;;;;;;;;;;;;;;6308868;28;19919;-79
2023/11/25 18:50:27;;;;;;;;;;;;;;;;;;6296174;28;19962;-80
2023/11/25 18:53:27;;;;;;;;;;;;;;;;;;6300582;28;19928;-79
2023/11/25 18:56:27;;;;;;;;;;;;;;;;;;6303785;28;19920;-79
2023/11/25 18:59:27;;;;;;;;;;;;;;;;;;6303520;28;19917;-79
2023/11/25 19:02:27;;;;;;;;;;;;;;;;;;6303454;28;20335;-79
2023/11/25 19:05:28;;;;;;;;;;;;;;;;;;6297088;28;19963;-79
2023/11/25 19:08:28;;;;;;;;;;;;;;;;;;6298094;28;20007;-79
2023/11/25 19:11:28;;;;;;;;;;;;;;;;;;6296606;28;19913;-79
2023/11/25 19:14:30;;;;;;;;;;;;;;;;;;6298738;28;20022;-79
2023/11/25 19:17:30;;;;;;;;;;;;;;;;;;6301721;28;20406;-79
2023/11/25 19:20:30;;;;;;;;;;;;;;;;;;6297966;28;19920;-79
2023/11/25 19:23:30;;;;;;;;;;;;;;;;;;6301308;28;20352;-79
2023/11/25 19:26:30;;;;;;;;;;;;;;;;;;6310082;28;19928;-79
2023/11/25 19:29:30;;;;;;;;;;;;;;;;;;6304755;28;20383;-80
2023/11/25 19:32:31;;;;;;;;;;;;;;;;;;6303762;28;20315;-79
2023/11/25 19:35:31;;;;;;;;;;;;;;;;;;6301190;28;20541;-79
2023/11/25 19:38:31;;;;;;;;;;;;;;;;;;6303436;28;19923;-79
2023/11/25 19:41:31;;;;;;;;;;;;;;;;;;6299057;28;19951;-82
2023/11/25 19:44:31;;;;;;;;;;;;;;;;;;6335564;27;19916;-81
2023/11/25 19:47:32;;;;;;;;;;;;;;;;;;6298907;28;19920;-82
2023/11/25 19:50:32;;;;;;;;;;;;;;;;;;6299986;28;19920;-81
2023/11/25 19:53:32;;;;;;;;;;;;;;;;;;6299907;28;20001;-82
2023/11/25 19:56:37;;;;;;;;;;;;;;;;;;6298076;28;19971;-81
2023/11/25 19:59:37;;;;;;;;;;;;;;;;;;6300084;28;19916;-81
2023/11/25 20:02:37;;;;;;;;;;;;;;;;;;6298629;28;19916;-81
2023/11/25 20:05:39;;;;;;;;;;;;;;;;;;6297151;28;19920;-81
2023/11/25 20:08:41;;;;;;;;;;;;;;;;;;6303794;28;20450;-81
2023/11/25 20:11:41;;;;;;;;;;;;;;;;;;6309088;28;19935;-81
2023/11/25 20:14:41;;;;;;;;;;;;;;;;;;6301931;28;19912;-80
2023/11/25 20:17:41;;;;;;;;;;;;;;;;;;6298848;28;20308;-80
2023/11/25 20:20:41;;;;;;;;;;;;;;;;;;6302519;28;20396;-80
2023/11/25 20:23:41;;;;;;;;;;;;;;;;;;6305003;28;19912;-80
2023/11/25 20:26:42;;;;;;;;;;;;;;;;;;6305207;28;19932;-80
2023/11/25 20:29:42;;;;;;;;;;;;;;;;;;6301116;28;20427;-80
2023/11/25 20:32:42;;;;;;;;;;;;;;;;;;6333091;27;20369;-81